Terminal Aerodrome Forecast
Issued by NWS

Home | Current Version | Previous Version | Text Only | Print | Product List | Glossary On
Versions: 1 2 3 4 5 6 7 8 9 10 11 12
540
FTUS46 KSGX 202332
TAFTRM
TAF
KTRM 202332Z 2100/2124 12007G19KT 4SM SHRA OVC070
      TEMPO 2100/2104 2SM TSRA BKN030CB
     FM210400 31017G28KT P6SM -SHRA BKN040
     FM210600 31013G20KT P6SM VCSH SCT080
     FM211400 33012KT P6SM SCT080=

USA.gov is the U.S. government's official web portal to all federal, state and local government web resources and services.